createdAt,value
2018-09-04T00:02:19.095Z,59.10
2018-09-04T00:04:47.447Z,59.00
2018-09-04T00:07:19.313Z,59.00
2018-09-04T00:09:48.536Z,59.10
2018-09-04T00:12:17.045Z,59.00
2018-09-04T00:14:45.419Z,59.00
2018-09-04T00:17:14.812Z,59.00
2018-09-04T00:19:43.234Z,59.00
2018-09-04T00:22:11.685Z,59.00
2018-09-04T00:24:40.101Z,59.00
2018-09-04T00:27:08.453Z,59.00
2018-09-04T00:29:36.797Z,59.10
2018-09-04T00:32:05.128Z,59.00
2018-09-04T00:34:33.528Z,59.00
2018-09-04T00:37:01.808Z,59.00
2018-09-04T00:39:30.166Z,59.00
2018-09-04T00:41:58.730Z,59.00
2018-09-04T00:44:27.146Z,59.00
2018-09-04T00:46:55.500Z,59.00
2018-09-04T00:49:23.786Z,59.00
2018-09-04T00:51:52.112Z,59.50
2018-09-04T00:54:20.472Z,59.00
2018-09-04T00:56:48.796Z,58.90
2018-09-04T00:59:17.218Z,58.90
2018-09-04T01:01:45.587Z,58.90
2018-09-04T01:04:14.652Z,58.90
2018-09-04T01:06:42.968Z,58.90
2018-09-04T01:09:13.833Z,58.90
2018-09-04T01:11:42.193Z,58.90
2018-09-04T01:14:10.514Z,58.90
2018-09-04T01:16:39.057Z,58.90
2018-09-04T01:19:07.571Z,58.90
2018-09-04T01:21:36.342Z,58.90
2018-09-04T01:24:04.780Z,58.90
2018-09-04T01:26:33.260Z,58.80
2018-09-04T01:29:01.653Z,58.90
2018-09-04T01:31:29.987Z,58.90
2018-09-04T01:33:59.039Z,58.80
2018-09-04T01:36:27.500Z,58.80
2018-09-04T01:38:55.898Z,58.70
2018-09-04T01:41:24.261Z,58.70
2018-09-04T01:43:52.586Z,58.70
2018-09-04T01:46:20.917Z,58.70
2018-09-04T01:48:50.645Z,58.70
2018-09-04T01:51:19.233Z,58.70
2018-09-04T01:53:47.731Z,58.70
2018-09-04T01:56:16.047Z,58.70
2018-09-04T01:58:44.371Z,58.70
2018-09-04T02:01:12.723Z,58.70
2018-09-04T02:03:41.111Z,58.70
2018-09-04T02:06:09.555Z,58.70
2018-09-04T02:08:37.908Z,58.70
2018-09-04T02:11:06.313Z,58.70
2018-09-04T02:13:34.815Z,58.70
2018-09-04T02:16:03.145Z,58.70
2018-09-04T02:18:31.511Z,58.70
2018-09-04T02:20:59.856Z,58.70
2018-09-04T02:23:28.189Z,58.60
2018-09-04T02:25:56.525Z,58.60
2018-09-04T02:28:24.856Z,58.60
2018-09-04T02:30:53.157Z,58.60
2018-09-04T02:33:21.476Z,58.60
2018-09-04T02:35:49.762Z,58.60
2018-09-04T02:38:18.221Z,58.60
2018-09-04T02:40:46.562Z,58.60
2018-09-04T02:43:14.898Z,58.60
2018-09-04T02:45:43.228Z,58.60
2018-09-04T02:48:11.576Z,58.60
2018-09-04T02:50:39.891Z,58.60
2018-09-04T02:53:08.282Z,58.60
2018-09-04T02:55:36.682Z,59.10
2018-09-04T02:58:05.453Z,58.50
2018-09-04T03:00:33.813Z,58.60
2018-09-04T03:03:02.149Z,58.50
2018-09-04T03:05:30.470Z,58.50
2018-09-04T03:07:58.810Z,58.50
2018-09-04T03:10:27.164Z,58.50
2018-09-04T03:12:55.456Z,58.50
2018-09-04T03:15:23.884Z,58.50
2018-09-04T03:17:52.211Z,58.30
2018-09-04T03:20:20.572Z,58.30
2018-09-04T03:22:49.130Z,58.30
2018-09-04T03:25:17.569Z,58.40
2018-09-04T03:27:45.899Z,58.30
2018-09-04T03:30:14.377Z,58.30
2018-09-04T03:32:42.706Z,58.30
2018-09-04T03:35:11.105Z,58.50
2018-09-04T03:37:39.405Z,58.20
2018-09-04T03:40:07.832Z,58.20
2018-09-04T03:42:36.232Z,58.20
2018-09-04T03:45:04.677Z,58.20
2018-09-04T03:47:32.970Z,58.20
2018-09-04T03:50:01.402Z,58.10
2018-09-04T03:52:29.762Z,58.10
2018-09-04T03:54:58.237Z,58.80
2018-09-04T03:57:26.665Z,58.20
2018-09-04T03:59:55.026Z,58.10
2018-09-04T04:02:23.444Z,58.10
2018-09-04T04:04:51.802Z,58.10
2018-09-04T04:07:20.115Z,58.10
2018-09-04T04:09:48.475Z,58.10
2018-09-04T04:12:16.873Z,58.10
2018-09-04T04:14:45.243Z,58.10
2018-09-04T04:17:13.549Z,58.10
2018-09-04T04:19:41.913Z,58.10
2018-09-04T04:22:10.242Z,57.70
2018-09-04T04:24:38.567Z,58.10
2018-09-04T04:27:07.001Z,58.10
2018-09-04T04:29:35.379Z,58.10
2018-09-04T04:32:04.106Z,58.10
2018-09-04T04:34:32.432Z,58.10
2018-09-04T04:37:00.715Z,58.10
2018-09-04T04:39:29.034Z,58.20
2018-09-04T04:41:57.699Z,58.20
2018-09-04T04:44:26.037Z,58.10
2018-09-04T04:46:54.373Z,58.10
2018-09-04T04:49:22.702Z,58.20
2018-09-04T04:51:51.181Z,58.20
2018-09-04T04:54:19.589Z,58.40
2018-09-04T04:56:47.926Z,59.40
2018-09-04T04:59:16.249Z,60.00
2018-09-04T05:01:44.573Z,59.90
2018-09-04T05:04:12.934Z,59.50
2018-09-04T05:06:41.372Z,59.30
2018-09-04T05:09:10.618Z,59.10
2018-09-04T05:11:39.306Z,58.90
2018-09-04T05:14:07.616Z,59.00
2018-09-04T05:16:36.056Z,59.10
2018-09-04T05:19:04.582Z,59.20
2018-09-04T05:21:32.906Z,59.90
2018-09-04T05:24:01.340Z,59.20
2018-09-04T05:26:29.699Z,59.20
2018-09-04T05:28:57.991Z,59.30
2018-09-04T05:31:26.865Z,59.20
2018-09-04T05:33:55.433Z,59.30
2018-09-04T05:36:23.790Z,59.30
2018-09-04T05:38:52.085Z,59.20
2018-09-04T05:41:20.430Z,59.10
2018-09-04T05:43:57.004Z,59.10
2018-09-04T05:46:58.109Z,59.10
2018-09-04T05:49:30.659Z,59.00
2018-09-04T05:51:59.095Z,59.00
2018-09-04T05:54:27.475Z,59.10
2018-09-04T05:56:55.819Z,59.20
2018-09-04T05:59:24.149Z,59.20
2018-09-04T06:01:52.590Z,59.20
2018-09-04T06:04:21.305Z,59.30
2018-09-04T06:06:49.798Z,60.00
2018-09-04T06:09:18.452Z,59.30
2018-09-04T06:11:46.773Z,59.50
2018-09-04T06:14:15.198Z,59.40
2018-09-04T06:16:43.544Z,59.40
2018-09-04T06:19:11.939Z,59.30
2018-09-04T06:21:40.351Z,59.20
2018-09-04T06:24:08.827Z,59.20
2018-09-04T06:26:37.234Z,59.10
2018-09-04T06:29:05.629Z,59.10
2018-09-04T06:31:33.996Z,59.10
2018-09-04T06:34:02.564Z,59.10
2018-09-04T06:36:30.857Z,59.10
2018-09-04T06:38:59.206Z,59.10
2018-09-04T06:41:27.751Z,59.10
2018-09-04T06:43:56.131Z,59.00
2018-09-04T06:46:24.649Z,59.00
2018-09-04T06:48:52.999Z,58.90
2018-09-04T06:51:21.312Z,59.00
2018-09-04T06:53:49.671Z,59.00
2018-09-04T06:56:17.991Z,59.00
2018-09-04T06:58:46.391Z,58.90
2018-09-04T07:01:14.885Z,58.90
2018-09-04T07:03:43.274Z,58.90
2018-09-04T07:06:11.775Z,58.90
2018-09-04T07:08:40.078Z,58.90
2018-09-04T07:11:08.443Z,59.00
2018-09-04T07:13:36.806Z,59.70
2018-09-04T07:16:05.249Z,59.00
2018-09-04T07:18:33.763Z,59.00
2018-09-04T07:21:02.143Z,59.00
2018-09-04T07:23:30.558Z,59.00
2018-09-04T07:25:58.908Z,59.00
2018-09-04T07:28:27.250Z,59.10
2018-09-04T07:30:55.545Z,59.10
2018-09-04T07:33:23.868Z,59.10
2018-09-04T07:35:52.200Z,59.10
2018-09-04T07:38:20.782Z,59.10
2018-09-04T07:40:49.195Z,59.10
2018-09-04T07:43:17.534Z,59.10
2018-09-04T07:45:45.963Z,59.20
2018-09-04T07:48:14.295Z,59.20
2018-09-04T07:50:42.638Z,59.10
2018-09-04T07:53:10.951Z,59.20
2018-09-04T07:55:39.265Z,59.10
2018-09-04T07:58:07.630Z,59.10
2018-09-04T08:00:36.036Z,59.20
2018-09-04T08:03:05.230Z,59.10
2018-09-04T08:05:33.844Z,59.10
2018-09-04T08:08:02.243Z,59.10
2018-09-04T08:10:34.202Z,59.10
2018-09-04T08:13:05.032Z,59.10
2018-09-04T08:15:33.380Z,59.10
2018-09-04T08:18:02.093Z,59.10
2018-09-04T08:20:30.628Z,59.10
2018-09-04T08:22:58.856Z,59.20
2018-09-04T08:25:27.307Z,59.20
2018-09-04T08:27:55.790Z,59.10
2018-09-04T08:30:24.610Z,59.10
2018-09-04T08:32:52.992Z,59.20
2018-09-04T08:35:21.453Z,59.20
2018-09-04T08:37:53.383Z,59.20
2018-09-04T08:40:22.024Z,59.30
2018-09-04T08:42:50.489Z,59.20
2018-09-04T08:45:18.919Z,59.20
2018-09-04T08:47:47.357Z,59.20
2018-09-04T08:50:15.608Z,59.70
2018-09-04T08:52:43.988Z,59.60
2018-09-04T08:55:12.501Z,59.40
2018-09-04T08:57:42.007Z,59.20
2018-09-04T09:00:10.356Z,59.30
2018-09-04T09:02:38.639Z,59.30
2018-09-04T09:05:07.013Z,59.20
2018-09-04T09:07:35.581Z,59.60
2018-09-04T09:10:04.084Z,60.30
2018-09-04T09:12:32.357Z,59.70
2018-09-04T09:15:00.881Z,59.30
2018-09-04T09:17:29.183Z,59.40
2018-09-04T09:19:57.488Z,59.30
2018-09-04T09:22:25.813Z,59.20
2018-09-04T09:24:54.143Z,59.20
2018-09-04T09:27:22.760Z,59.20
2018-09-04T09:29:51.273Z,59.40
2018-09-04T09:32:19.581Z,60.20
2018-09-04T09:34:47.986Z,60.80
2018-09-04T09:37:16.288Z,60.10
2018-09-04T09:39:44.664Z,59.90
2018-09-04T09:42:13.994Z,59.60
2018-09-04T09:44:43.929Z,60.20
2018-09-04T09:47:12.241Z,60.80
2018-09-04T09:49:40.684Z,60.20
2018-09-04T09:52:09.017Z,60.50
2018-09-04T09:54:37.371Z,61.00
2018-09-04T09:57:05.724Z,61.10
2018-09-04T09:59:34.175Z,61.20
2018-09-04T10:02:09.158Z,60.70
2018-09-04T10:04:37.700Z,60.50
2018-09-04T10:07:06.081Z,60.20
2018-09-04T10:09:34.439Z,60.10
2018-09-04T10:12:02.742Z,60.20
2018-09-04T10:14:31.098Z,60.30
2018-09-04T10:16:59.834Z,60.10
2018-09-04T10:19:28.172Z,60.00
2018-09-04T10:21:56.500Z,60.00
2018-09-04T10:24:24.843Z,59.80
2018-09-04T10:26:53.168Z,59.70
2018-09-04T10:29:21.518Z,59.40
2018-09-04T10:31:49.939Z,59.60
2018-09-04T10:34:18.313Z,59.10
2018-09-04T10:36:47.124Z,59.50
2018-09-04T10:39:20.868Z,59.70
2018-09-04T10:41:49.227Z,59.60
2018-09-04T10:44:17.592Z,59.40
2018-09-04T10:46:45.950Z,59.20
2018-09-04T10:49:14.335Z,59.20
2018-09-04T10:51:42.693Z,59.10
2018-09-04T10:54:11.131Z,59.00
2018-09-04T10:56:39.625Z,58.90
2018-09-04T10:59:08.090Z,59.00
2018-09-04T11:01:36.909Z,58.90
2018-09-04T11:04:05.277Z,58.90
2018-09-04T11:06:33.609Z,58.80
2018-09-04T11:09:02.036Z,58.80
2018-09-04T11:11:30.390Z,58.90
2018-09-04T11:13:58.731Z,59.00
2018-09-04T11:16:27.075Z,59.40
2018-09-04T11:18:55.427Z,58.60
2018-09-04T11:21:23.907Z,58.70
2018-09-04T11:23:52.308Z,59.20
2018-09-04T11:26:21.064Z,58.70
2018-09-04T11:28:52.713Z,58.70
2018-09-04T11:31:21.119Z,58.60
2018-09-04T11:33:49.482Z,58.40
2018-09-04T11:36:17.851Z,58.40
2018-09-04T11:38:46.161Z,58.80
2018-09-04T11:41:14.483Z,58.80
2018-09-04T11:43:42.863Z,58.90
2018-09-04T11:46:11.193Z,58.40
2018-09-04T11:48:39.986Z,58.60
2018-09-04T11:51:10.878Z,58.70
2018-09-04T11:53:39.295Z,58.50
2018-09-04T11:56:07.629Z,58.40
2018-09-04T11:58:36.048Z,58.40
2018-09-04T12:01:08.733Z,58.40
2018-09-04T12:03:37.117Z,58.40
2018-09-04T12:06:05.929Z,58.40
2018-09-04T12:08:35.005Z,58.40
2018-09-04T12:11:03.536Z,58.40
2018-09-04T12:13:32.403Z,58.40
2018-09-04T12:16:01.100Z,58.40
2018-09-04T12:18:30.004Z,58.40
2018-09-04T12:21:02.772Z,58.40
2018-09-04T12:23:31.214Z,58.40
2018-09-04T12:26:00.852Z,58.40
2018-09-04T12:28:29.534Z,58.40
2018-09-04T12:30:58.609Z,58.30
2018-09-04T12:33:27.013Z,58.30
2018-09-04T12:35:55.353Z,58.30
2018-09-04T12:38:27.510Z,58.20
2018-09-04T12:40:55.848Z,58.20
2018-09-04T12:43:24.278Z,58.20
2018-09-04T12:45:56.465Z,58.10
2018-09-04T12:48:29.120Z,58.10
2018-09-04T12:50:58.539Z,58.10
2018-09-04T12:53:27.748Z,58.10
2018-09-04T12:55:56.205Z,58.00
2018-09-04T12:58:24.583Z,57.90
2018-09-04T13:00:54.024Z,57.90
2018-09-04T13:03:23.656Z,57.80
2018-09-04T13:05:52.212Z,57.80
2018-09-04T13:08:22.036Z,57.80
2018-09-04T13:10:50.490Z,57.80
2018-09-04T13:13:18.996Z,57.80
2018-09-04T13:15:51.126Z,57.80
2018-09-04T13:18:19.596Z,58.40
2018-09-04T13:20:47.903Z,57.80
2018-09-04T13:23:16.431Z,57.80
2018-09-04T13:25:45.376Z,57.80
2018-09-04T13:28:13.944Z,57.80
2018-09-04T13:30:42.323Z,57.80
2018-09-04T13:33:10.718Z,57.80
2018-09-04T13:35:39.795Z,57.80
2018-09-04T13:38:08.204Z,57.80
2018-09-04T13:40:36.756Z,57.80
2018-09-04T13:43:05.141Z,57.80
2018-09-04T13:45:33.688Z,57.80
2018-09-04T13:48:02.227Z,57.80
2018-09-04T13:50:30.606Z,57.70
2018-09-04T13:52:59.137Z,57.70
2018-09-04T13:55:27.537Z,57.70
2018-09-04T13:57:56.003Z,57.80
2018-09-04T14:00:25.153Z,57.70
2018-09-04T14:02:53.532Z,57.70
2018-09-04T14:05:21.998Z,57.70
2018-09-04T14:07:50.356Z,57.70
2018-09-04T14:10:18.716Z,57.80
2018-09-04T14:12:47.093Z,58.00
2018-09-04T14:15:15.435Z,58.00
2018-09-04T14:17:43.799Z,58.00
2018-09-04T14:20:12.182Z,57.90
2018-09-04T14:22:40.565Z,58.70
2018-09-04T14:25:09.120Z,58.30
2018-09-04T14:27:37.487Z,58.40
2018-09-04T14:30:18.415Z,58.20
2018-09-04T14:32:34.812Z,58.20
2018-09-04T14:35:03.163Z,58.20
2018-09-04T14:37:31.502Z,58.10
2018-09-04T14:39:59.848Z,58.10
2018-09-04T14:42:28.190Z,58.10
2018-09-04T14:44:56.604Z,58.10
2018-09-04T14:47:24.855Z,58.20
2018-09-04T14:49:53.282Z,58.10
2018-09-04T14:52:21.655Z,58.10
2018-09-04T14:54:50.048Z,58.30
2018-09-04T14:57:18.397Z,58.20
2018-09-04T14:59:46.920Z,58.60
2018-09-04T15:02:15.350Z,58.50
2018-09-04T15:04:43.751Z,58.30
2018-09-04T15:07:12.145Z,58.20
2018-09-04T15:09:40.529Z,58.20
2018-09-04T15:12:08.920Z,58.30
2018-09-04T15:14:38.726Z,58.20
2018-09-04T15:17:07.318Z,58.20
2018-09-04T15:19:35.780Z,58.20
2018-09-04T15:22:04.159Z,58.10
2018-09-04T15:24:32.571Z,58.00
2018-09-04T15:27:00.957Z,57.90
2018-09-04T15:29:29.479Z,58.10
2018-09-04T15:31:57.808Z,58.10
2018-09-04T15:34:26.160Z,58.10
2018-09-04T15:36:54.709Z,58.10
2018-09-04T15:39:23.184Z,58.10
2018-09-04T15:41:51.600Z,58.10
2018-09-04T15:44:20.333Z,57.90
2018-09-04T15:46:48.732Z,57.90
2018-09-04T15:49:22.750Z,58.00
2018-09-04T15:51:51.496Z,57.90
2018-09-04T15:54:20.054Z,57.90
2018-09-04T15:56:48.587Z,57.90
2018-09-04T15:59:17.112Z,57.80
2018-09-04T16:01:45.419Z,57.80
2018-09-04T16:04:13.901Z,57.90
2018-09-04T16:06:42.318Z,57.90
2018-09-04T16:09:10.791Z,57.90
2018-09-04T16:11:39.322Z,58.00
2018-09-04T16:14:07.748Z,58.00
2018-09-04T16:16:36.380Z,57.90
2018-09-04T16:19:04.782Z,58.00
2018-09-04T16:21:33.430Z,58.00
2018-09-04T16:24:02.635Z,58.00
2018-09-04T16:26:32.985Z,58.10
2018-09-04T16:29:32.772Z,58.10
2018-09-04T16:32:01.216Z,58.00
2018-09-04T16:34:29.734Z,58.60
2018-09-04T16:36:58.200Z,58.10
2018-09-04T16:39:26.533Z,57.60
2018-09-04T16:41:54.908Z,58.60
2018-09-04T16:44:23.292Z,58.00
2018-09-04T16:46:51.638Z,58.00
2018-09-04T16:49:24.191Z,58.10
2018-09-04T16:51:52.668Z,58.10
2018-09-04T16:54:22.247Z,58.10
2018-09-04T16:56:50.990Z,58.10
2018-09-04T16:59:19.505Z,58.10
2018-09-04T17:01:47.879Z,58.30
2018-09-04T17:04:16.807Z,58.20
2018-09-04T17:06:45.406Z,58.20
2018-09-04T17:09:13.775Z,58.10
2018-09-04T17:11:42.256Z,58.30
2018-09-04T17:14:12.307Z,58.30
2018-09-04T17:16:40.812Z,58.20
2018-09-04T17:19:09.341Z,58.20
2018-09-04T17:21:41.411Z,58.40
2018-09-04T17:24:09.958Z,58.30
2018-09-04T17:26:38.638Z,58.30
2018-09-04T17:29:07.068Z,58.40
2018-09-04T17:31:35.375Z,58.30
2018-09-04T17:34:03.726Z,58.50
2018-09-04T17:36:32.282Z,58.50
2018-09-04T17:39:00.785Z,58.40
2018-09-04T17:41:29.822Z,58.70
2018-09-04T17:43:58.220Z,59.00
2018-09-04T17:46:26.682Z,58.90
2018-09-04T17:48:55.205Z,58.60
2018-09-04T17:51:23.598Z,59.10
2018-09-04T17:53:51.931Z,58.90
2018-09-04T17:56:20.284Z,59.00
2018-09-04T17:58:48.952Z,59.00
2018-09-04T18:01:17.280Z,58.80
2018-09-04T18:03:45.655Z,59.00
2018-09-04T18:06:14.101Z,59.00
2018-09-04T18:08:42.522Z,59.10
2018-09-04T18:11:11.010Z,59.30
2018-09-04T18:13:39.440Z,59.10
2018-09-04T18:16:08.057Z,59.20
2018-09-04T18:18:36.563Z,59.30
2018-09-04T18:21:06.630Z,59.80
2018-09-04T18:23:34.985Z,59.50
2018-09-04T18:26:03.363Z,59.50
2018-09-04T18:28:31.785Z,59.50
2018-09-04T18:31:00.437Z,59.50
2018-09-04T18:33:28.929Z,59.50
2018-09-04T18:35:57.376Z,59.60
2018-09-04T18:38:25.851Z,59.70
2018-09-04T18:40:55.230Z,59.60
2018-09-04T18:43:23.642Z,59.50
2018-09-04T18:45:54.744Z,59.70
2018-09-04T18:48:24.412Z,59.70
2018-09-04T18:50:52.925Z,59.80
2018-09-04T18:53:21.666Z,60.20
2018-09-04T18:55:50.057Z,60.70
2018-09-04T18:58:18.414Z,61.50
2018-09-04T19:00:46.947Z,60.70
2018-09-04T19:03:15.378Z,60.60
2018-09-04T19:05:44.577Z,60.50
2018-09-04T19:08:13.133Z,60.70
2018-09-04T19:10:41.602Z,61.30
2018-09-04T19:13:09.993Z,60.60
2018-09-04T19:15:38.290Z,61.40
2018-09-04T19:18:07.475Z,61.30
2018-09-04T19:20:36.022Z,61.60
2018-09-04T19:23:04.445Z,61.90
2018-09-04T19:25:32.832Z,61.50
2018-09-04T19:28:01.415Z,61.20
2018-09-04T19:30:30.522Z,61.20
2018-09-04T19:32:59.543Z,61.00
2018-09-04T19:35:29.084Z,61.20
2018-09-04T19:37:58.230Z,61.50
2018-09-04T19:40:26.756Z,61.60
2018-09-04T19:42:55.240Z,61.50
2018-09-04T19:45:23.710Z,61.20
2018-09-04T19:47:52.096Z,61.00
2018-09-04T19:50:20.786Z,60.80
2018-09-04T19:52:50.202Z,60.90
2018-09-04T19:55:19.065Z,60.80
2018-09-04T19:57:47.574Z,60.70
2018-09-04T20:00:15.996Z,60.50
2018-09-04T20:02:44.396Z,60.50
2018-09-04T20:05:12.830Z,60.50
2018-09-04T20:07:41.209Z,60.40
2018-09-04T20:10:09.757Z,60.30
2018-09-04T20:12:38.410Z,60.30
2018-09-04T20:15:07.116Z,60.50
2018-09-04T20:17:36.664Z,60.40
2018-09-04T20:20:06.598Z,60.30
2018-09-04T20:22:35.836Z,60.50
2018-09-04T20:25:04.261Z,60.70
2018-09-04T20:27:32.600Z,61.30
2018-09-04T20:30:00.957Z,60.60
2018-09-04T20:32:29.487Z,60.60
2018-09-04T20:34:57.921Z,60.60
2018-09-04T20:37:26.267Z,60.60
2018-09-04T20:39:54.862Z,60.50
2018-09-04T20:42:23.344Z,60.50
2018-09-04T20:44:51.713Z,60.60
2018-09-04T20:47:20.214Z,60.60
2018-09-04T20:49:48.625Z,60.70
2018-09-04T20:52:17.158Z,60.70
2018-09-04T20:54:45.930Z,60.50
2018-09-04T20:57:30.926Z,60.50
2018-09-04T21:00:12.810Z,60.70
2018-09-04T21:02:52.802Z,60.50
2018-09-04T21:05:32.507Z,60.40
2018-09-04T21:09:13.501Z,60.50
2018-09-04T21:11:45.299Z,60.30
2018-09-04T21:14:14.338Z,60.00
2018-09-04T21:16:42.783Z,60.40
2018-09-04T21:19:11.192Z,61.20
2018-09-04T21:21:39.528Z,60.30
2018-09-04T21:24:07.942Z,60.30
2018-09-04T21:26:36.454Z,60.50
2018-09-04T21:29:05.213Z,60.40
2018-09-04T21:31:33.782Z,60.60
2018-09-04T21:34:02.083Z,60.40
2018-09-04T21:36:30.592Z,60.30
2018-09-04T21:38:59.002Z,60.30
2018-09-04T21:41:27.358Z,60.40
2018-09-04T21:43:55.800Z,60.40
2018-09-04T21:46:24.622Z,60.30
2018-09-04T21:48:56.348Z,60.40
2018-09-04T21:51:24.920Z,60.30
2018-09-04T21:53:53.714Z,60.20
2018-09-04T21:56:22.806Z,60.20
2018-09-04T21:58:52.197Z,60.20
2018-09-04T22:01:21.606Z,60.40
2018-09-04T22:03:50.635Z,60.20
2018-09-04T22:06:19.137Z,60.20
2018-09-04T22:08:47.569Z,60.20
2018-09-04T22:11:15.906Z,60.30
2018-09-04T22:13:44.524Z,60.20
2018-09-04T22:16:13.475Z,60.20
2018-09-04T22:18:42.150Z,60.30
2018-09-04T22:21:10.827Z,60.40
2018-09-04T22:23:39.284Z,60.20
2018-09-04T22:26:08.042Z,60.20
2018-09-04T22:28:37.139Z,60.30
2018-09-04T22:31:05.798Z,60.20
2018-09-04T22:33:34.155Z,60.30
2018-09-04T22:36:03.050Z,60.30
2018-09-04T22:38:32.630Z,60.30
2018-09-04T22:41:02.481Z,60.30
2018-09-04T22:43:31.655Z,60.90
2018-09-04T22:46:00.503Z,60.40
2018-09-04T22:48:29.543Z,60.30
2018-09-04T22:51:04.298Z,60.40
2018-09-04T22:53:33.861Z,60.40
2018-09-04T22:56:05.504Z,60.40
2018-09-04T22:58:34.189Z,60.30
2018-09-04T23:01:04.943Z,60.00
2018-09-04T23:03:33.855Z,60.40
2018-09-04T23:06:03.111Z,60.30
2018-09-04T23:08:32.757Z,60.40
2018-09-04T23:11:03.703Z,60.40
2018-09-04T23:13:33.713Z,60.50
2018-09-04T23:16:03.511Z,60.50
2018-09-04T23:18:34.218Z,60.30
2018-09-04T23:21:03.433Z,60.50
2018-09-04T23:23:32.251Z,60.50
2018-09-04T23:26:00.725Z,60.50
2018-09-04T23:28:29.089Z,60.50
2018-09-04T23:30:57.422Z,60.50
2018-09-04T23:33:26.989Z,60.50
2018-09-04T23:35:57.127Z,60.50
2018-09-04T23:38:27.571Z,60.60
2018-09-04T23:40:56.852Z,60.60
2018-09-04T23:43:26.111Z,60.90
2018-09-04T23:45:54.643Z,60.60
2018-09-04T23:48:23.092Z,60.60
2018-09-04T23:50:51.416Z,60.60
2018-09-04T23:53:19.772Z,60.60
2018-09-04T23:55:48.089Z,60.60
2018-09-04T23:58:16.698Z,60.50
